Time;durP1;ratioP1;P1;durP2;ratioP2;P2;SDS_P1;SDS_P2;PMS_P1;PMS_P2;Temp;Humidity;BMP_temperature;BMP_pressure;BME280_temperature;BME280_humidity;BME280_pressure;Samples;Min_cycle;Max_cycle;Signal;HPM_P1;HPM_P2
2021/05/19 00:01:23;;;;;;;2.83;0.85;;;;;;;;;;5034531;28;20078;-78
2021/05/19 00:03:49;;;;;;;1.92;0.82;;;;;;;;;;5034859;28;20049;-78
2021/05/19 00:06:14;;;;;;;3.58;0.98;;;;;;;;;;5050538;28;20095;-78
2021/05/19 00:08:40;;;;;;;1.77;0.85;;;;;;;;;;5051060;28;20069;-78
2021/05/19 00:11:06;;;;;;;2.38;0.82;;;;;;;;;;5035065;28;20112;-77
2021/05/19 00:13:33;;;;;;;3.85;0.98;;;;;;;;;;5033902;28;20479;-78
2021/05/19 00:15:58;;;;;;;2.47;0.80;;;;;;;;;;5034330;28;20041;-77
2021/05/19 00:18:24;;;;;;;3.75;1.13;;;;;;;;;;5033908;28;20040;-77
2021/05/19 00:20:49;;;;;;;1.20;0.60;;;;;;;;;;5050564;28;20114;-78
2021/05/19 00:23:15;;;;;;;1.58;0.73;;;;;;;;;;5050944;28;20124;-78
2021/05/19 00:25:40;;;;;;;1.50;0.90;;;;;;;;;;5034384;28;20037;-78
2021/05/19 00:28:05;;;;;;;2.17;0.95;;;;;;;;;;5050101;28;20048;-78
2021/05/19 00:30:33;;;;;;;2.00;0.95;;;;;;;;;;5030785;28;20377;-77
2021/05/19 00:32:58;;;;;;;2.53;0.95;;;;;;;;;;5065027;28;20042;-78
2021/05/19 00:35:24;;;;;;;1.60;0.90;;;;;;;;;;5028138;28;20515;-78
2021/05/19 00:37:49;;;;;;;1.90;0.90;;;;;;;;;;5034009;28;20419;-77
2021/05/19 00:40:15;;;;;;;2.55;1.00;;;;;;;;;;5033839;28;20380;-77
2021/05/19 00:42:40;;;;;;;2.03;1.00;;;;;;;;;;5033995;28;20037;-78
2021/05/19 00:45:10;;;;;;;2.55;0.93;;;;;;;;;;5042652;28;20044;-78
2021/05/19 00:47:37;;;;;;;1.77;0.88;;;;;;;;;;5063800;28;20128;-77
2021/05/19 00:50:04;;;;;;;1.63;0.73;;;;;;;;;;5063538;28;20088;-78
2021/05/19 00:52:29;;;;;;;1.98;1.10;;;;;;;;;;5047366;28;20042;-78
2021/05/19 00:54:55;;;;;;;2.80;1.15;;;;;;;;;;5064769;28;20526;-77
2021/05/19 00:57:20;;;;;;;2.90;1.05;;;;;;;;;;5063891;28;20407;-78
2021/05/19 00:59:46;;;;;;;1.75;1.00;;;;;;;;;;5056614;28;20047;-76
2021/05/19 01:02:11;;;;;;;1.48;0.90;;;;;;;;;;5016707;28;20415;-78
2021/05/19 01:04:37;;;;;;;2.42;1.23;;;;;;;;;;5049927;28;20029;-78
2021/05/19 01:07:14;;;;;;;2.25;0.80;;;;;;;;;;5050370;28;20037;-78
2021/05/19 01:09:39;;;;;;;2.58;1.20;;;;;;;;;;5050016;28;20098;-78
2021/05/19 01:12:08;;;;;;;2.63;1.10;;;;;;;;;;5032864;28;20040;-78
2021/05/19 01:14:34;;;;;;;3.05;1.17;;;;;;;;;;5063468;28;20037;-78
2021/05/19 01:16:59;;;;;;;1.85;0.98;;;;;;;;;;5016849;28;20415;-78
2021/05/19 01:19:25;;;;;;;1.98;0.93;;;;;;;;;;5033929;28;20434;-78
2021/05/19 01:21:51;;;;;;;1.73;1.00;;;;;;;;;;5017313;28;20454;-77
2021/05/19 01:24:16;;;;;;;1.85;0.90;;;;;;;;;;5033287;28;20033;-77
2021/05/19 01:26:42;;;;;;;1.80;1.02;;;;;;;;;;5033975;28;20037;-78
2021/05/19 01:29:07;;;;;;;2.67;1.15;;;;;;;;;;5067350;28;20033;-78
2021/05/19 01:31:33;;;;;;;1.20;0.73;;;;;;;;;;5068535;28;20096;-78
2021/05/19 01:33:59;;;;;;;1.95;0.93;;;;;;;;;;5034058;28;20079;-78
2021/05/19 01:36:24;;;;;;;2.33;1.73;;;;;;;;;;5033754;28;20041;-78
2021/05/19 01:38:50;;;;;;;2.92;0.98;;;;;;;;;;5034214;28;20115;-77
2021/05/19 01:41:15;;;;;;;1.75;0.90;;;;;;;;;;5033866;28;20037;-77
2021/05/19 01:43:41;;;;;;;1.92;1.20;;;;;;;;;;5017406;28;20049;-77
2021/05/19 01:46:06;;;;;;;1.85;1.10;;;;;;;;;;5036241;28;20036;-78
2021/05/19 01:48:34;;;;;;;1.40;1.00;;;;;;;;;;5037563;28;20090;-77
2021/05/19 01:50:59;;;;;;;1.63;1.02;;;;;;;;;;5037395;28;20052;-78
2021/05/19 01:53:28;;;;;;;3.25;1.33;;;;;;;;;;5037105;28;20037;-77
2021/05/19 01:55:53;;;;;;;2.45;1.30;;;;;;;;;;5053009;28;20045;-78
2021/05/19 01:58:19;;;;;;;3.10;1.20;;;;;;;;;;5020415;28;20050;-78
2021/05/19 02:00:44;;;;;;;2.63;1.30;;;;;;;;;;5069912;28;20048;-78
2021/05/19 02:03:10;;;;;;;2.97;1.80;;;;;;;;;;5037277;28;20039;-78
2021/05/19 02:05:36;;;;;;;3.15;1.25;;;;;;;;;;5052664;28;20119;-78
2021/05/19 02:08:03;;;;;;;2.25;1.42;;;;;;;;;;5037018;28;20419;-78
2021/05/19 02:10:29;;;;;;;2.63;1.50;;;;;;;;;;5036832;28;20116;-78
2021/05/19 02:12:58;;;;;;;2.55;1.33;;;;;;;;;;5036539;28;20041;-78
2021/05/19 02:15:23;;;;;;;3.92;1.40;;;;;;;;;;5049484;28;20557;-78
2021/05/19 02:17:51;;;;;;;2.75;1.33;;;;;;;;;;5065942;28;20116;-78
2021/05/19 02:20:19;;;;;;;2.42;1.40;;;;;;;;;;5066853;28;20101;-78
2021/05/19 02:22:44;;;;;;;2.38;1.55;;;;;;;;;;5066725;28;20510;-78
2021/05/19 02:25:10;;;;;;;3.85;1.45;;;;;;;;;;5036337;28;20112;-78
2021/05/19 02:27:36;;;;;;;3.25;1.63;;;;;;;;;;5032720;28;20037;-78
2021/05/19 02:30:04;;;;;;;2.97;1.75;;;;;;;;;;5051003;28;20045;-78
2021/05/19 02:32:29;;;;;;;2.40;1.40;;;;;;;;;;5033206;28;20048;-78
2021/05/19 02:34:55;;;;;;;4.45;2.28;;;;;;;;;;5050734;28;20049;-80
2021/05/19 02:37:20;;;;;;;3.55;1.95;;;;;;;;;;5052648;28;20105;-78
2021/05/19 02:39:46;;;;;;;3.78;1.92;;;;;;;;;;5036213;28;20045;-78
2021/05/19 02:42:11;;;;;;;4.10;2.13;;;;;;;;;;5032537;28;20682;-78
2021/05/19 02:44:36;;;;;;;3.15;1.80;;;;;;;;;;5068479;28;20033;-78
2021/05/19 02:47:03;;;;;;;4.00;2.10;;;;;;;;;;5036030;28;20174;-78
2021/05/19 02:49:28;;;;;;;5.13;2.17;;;;;;;;;;5069220;28;20483;-78
2021/05/19 02:51:55;;;;;;;2.92;1.85;;;;;;;;;;5052828;28;20036;-78
2021/05/19 02:54:20;;;;;;;3.70;2.00;;;;;;;;;;5035731;28;20041;-78
2021/05/19 02:56:46;;;;;;;2.90;1.60;;;;;;;;;;5060555;28;20071;-78
2021/05/19 02:59:11;;;;;;;3.53;1.75;;;;;;;;;;5037210;28;20033;-78
2021/05/19 03:01:37;;;;;;;3.28;1.50;;;;;;;;;;5041511;28;20041;-78
2021/05/19 03:04:03;;;;;;;2.83;1.73;;;;;;;;;;5032449;28;20040;-78
2021/05/19 03:06:28;;;;;;;2.95;1.50;;;;;;;;;;5065940;28;20095;-78
2021/05/19 03:08:54;;;;;;;2.65;1.60;;;;;;;;;;5068933;28;20067;-78
2021/05/19 03:11:19;;;;;;;4.00;1.63;;;;;;;;;;5052302;28;20049;-78
2021/05/19 03:13:45;;;;;;;2.85;1.50;;;;;;;;;;5068794;28;20087;-78
2021/05/19 03:16:10;;;;;;;4.07;2.03;;;;;;;;;;5052128;28;20076;-78
2021/05/19 03:18:36;;;;;;;3.97;1.63;;;;;;;;;;5035574;28;20040;-78
2021/05/19 03:21:02;;;;;;;3.08;1.58;;;;;;;;;;5052082;28;20052;-78
2021/05/19 03:23:28;;;;;;;3.97;1.88;;;;;;;;;;5035777;28;20033;-78
2021/05/19 03:25:54;;;;;;;3.20;1.63;;;;;;;;;;5035133;28;20523;-78
2021/05/19 03:28:19;;;;;;;3.83;1.65;;;;;;;;;;5068294;28;20041;-78
2021/05/19 03:30:45;;;;;;;3.88;1.58;;;;;;;;;;5035494;28;20076;-78
2021/05/19 03:33:10;;;;;;;5.45;1.50;;;;;;;;;;5051787;28;20033;-78
2021/05/19 03:35:36;;;;;;;3.42;1.48;;;;;;;;;;5035286;28;20037;-78
2021/05/19 03:38:01;;;;;;;3.38;1.80;;;;;;;;;;5035167;28;20045;-78
2021/05/19 03:40:27;;;;;;;2.22;1.10;;;;;;;;;;5018815;28;20044;-79
2021/05/19 03:42:52;;;;;;;3.38;1.73;;;;;;;;;;5034922;28;20479;-78
2021/05/19 03:45:19;;;;;;;2.30;1.30;;;;;;;;;;5034640;28;20075;-78
2021/05/19 03:47:50;;;;;;;4.20;1.75;;;;;;;;;;5050973;28;20029;-78
2021/05/19 03:50:15;;;;;;;3.10;1.30;;;;;;;;;;4998959;28;20041;-78
2021/05/19 03:52:41;;;;;;;3.63;1.65;;;;;;;;;;5015585;28;20484;-78
2021/05/19 03:55:08;;;;;;;2.50;1.30;;;;;;;;;;5030218;28;20120;-78
2021/05/19 03:57:33;;;;;;;3.03;1.48;;;;;;;;;;5017293;28;20033;-78
2021/05/19 03:59:59;;;;;;;2.88;1.27;;;;;;;;;;5051468;28;20051;-78
2021/05/19 04:02:24;;;;;;;3.05;1.20;;;;;;;;;;5050419;28;20082;-78
2021/05/19 04:04:50;;;;;;;2.65;1.13;;;;;;;;;;5051088;28;20090;-78
2021/05/19 04:07:15;;;;;;;1.98;1.10;;;;;;;;;;5034841;28;20033;-78
2021/05/19 04:09:41;;;;;;;4.97;1.40;;;;;;;;;;5034217;28;20423;-78
2021/05/19 04:12:06;;;;;;;2.78;1.42;;;;;;;;;;5033756;28;20033;-78
2021/05/19 04:14:32;;;;;;;3.65;1.27;;;;;;;;;;5034554;28;20037;-78
2021/05/19 04:16:57;;;;;;;2.55;1.23;;;;;;;;;;5034228;28;20072;-79
2021/05/19 04:19:23;;;;;;;3.33;1.33;;;;;;;;;;5034804;28;20056;-79
2021/05/19 04:21:48;;;;;;;2.55;1.17;;;;;;;;;;5047345;28;20065;-78
2021/05/19 04:24:14;;;;;;;3.03;1.20;;;;;;;;;;5065264;28;20163;-77
2021/05/19 04:26:39;;;;;;;3.33;1.10;;;;;;;;;;5050672;28;20051;-78
2021/05/19 04:29:05;;;;;;;2.40;1.17;;;;;;;;;;5050800;28;20037;-78
2021/05/19 04:31:31;;;;;;;3.38;1.55;;;;;;;;;;5051295;28;20494;-78
2021/05/19 04:33:57;;;;;;;4.40;1.67;;;;;;;;;;5050621;28;20033;-78
2021/05/19 04:36:22;;;;;;;3.63;0.85;;;;;;;;;;5017812;28;20076;-78
2021/05/19 04:38:48;;;;;;;2.65;1.00;;;;;;;;;;5034029;28;20037;-78
2021/05/19 04:41:13;;;;;;;2.70;1.35;;;;;;;;;;5034227;28;20055;-78
2021/05/19 04:43:39;;;;;;;2.88;1.00;;;;;;;;;;5050630;28;20153;-78
2021/05/19 04:46:05;;;;;;;3.40;0.95;;;;;;;;;;5017309;28;20041;-77
2021/05/19 04:48:30;;;;;;;3.17;1.23;;;;;;;;;;5030145;28;20041;-78
2021/05/19 04:50:56;;;;;;;2.75;0.80;;;;;;;;;;5063906;28;20037;-77
2021/05/19 04:53:21;;;;;;;3.08;0.90;;;;;;;;;;5047348;28;20036;-77
2021/05/19 04:55:47;;;;;;;2.35;0.77;;;;;;;;;;5064667;28;20427;-78
2021/05/19 04:58:12;;;;;;;3.08;0.90;;;;;;;;;;5047323;28;20033;-78
2021/05/19 05:00:38;;;;;;;3.33;0.82;;;;;;;;;;5061848;28;20108;-77
2021/05/19 05:03:04;;;;;;;1.85;0.70;;;;;;;;;;5033802;28;20063;-78
2021/05/19 05:05:29;;;;;;;2.78;0.90;;;;;;;;;;5015274;28;20040;-77
2021/05/19 05:07:55;;;;;;;2.60;0.70;;;;;;;;;;5031003;28;20380;-77
2021/05/19 05:10:21;;;;;;;6.25;1.13;;;;;;;;;;5030782;28;20092;-76
2021/05/19 05:12:49;;;;;;;3.38;1.00;;;;;;;;;;5049263;28;20399;-77
2021/05/19 05:15:15;;;;;;;4.10;0.80;;;;;;;;;;5033684;28;20037;-77
2021/05/19 05:17:41;;;;;;;5.20;1.23;;;;;;;;;;5050116;28;20136;-77
2021/05/19 05:20:08;;;;;;;4.57;1.27;;;;;;;;;;5033241;28;20120;-77
2021/05/19 05:22:33;;;;;;;4.72;0.95;;;;;;;;;;5049522;28;20052;-77
2021/05/19 05:24:59;;;;;;;6.45;1.10;;;;;;;;;;5049818;28;20522;-76
2021/05/19 05:27:25;;;;;;;8.07;1.35;;;;;;;;;;5033211;28;20132;-76
2021/05/19 05:29:50;;;;;;;6.50;1.50;;;;;;;;;;5049589;28;20041;-77
2021/05/19 05:32:15;;;;;;;7.65;1.63;;;;;;;;;;5050167;28;20116;-76
2021/05/19 05:34:41;;;;;;;11.32;1.80;;;;;;;;;;5049799;28;20128;-77
2021/05/19 05:37:06;;;;;;;6.78;2.20;;;;;;;;;;5050378;28;20033;-77
2021/05/19 05:39:32;;;;;;;7.28;1.13;;;;;;;;;;5049402;28;20036;-77
2021/05/19 05:41:57;;;;;;;6.10;1.05;;;;;;;;;;5047905;28;20571;-77
2021/05/19 05:44:23;;;;;;;5.68;1.60;;;;;;;;;;5040270;28;20132;-77
2021/05/19 05:46:48;;;;;;;9.32;2.25;;;;;;;;;;5032232;28;20051;-77
2021/05/19 05:49:14;;;;;;;4.00;1.25;;;;;;;;;;5031984;28;20025;-77
2021/05/19 05:51:39;;;;;;;5.78;1.05;;;;;;;;;;5045073;28;20076;-77
2021/05/19 05:54:05;;;;;;;5.20;1.30;;;;;;;;;;5048918;28;20110;-77
2021/05/19 05:56:30;;;;;;;7.50;1.73;;;;;;;;;;5049888;28;20033;-76
2021/05/19 05:58:56;;;;;;;6.13;1.08;;;;;;;;;;5050901;28;20397;-77
2021/05/19 06:01:21;;;;;;;5.78;1.30;;;;;;;;;;5049304;28;20041;-77
2021/05/19 06:03:47;;;;;;;5.32;1.05;;;;;;;;;;5029384;28;20054;-77
2021/05/19 06:06:12;;;;;;;4.00;1.83;;;;;;;;;;5054591;28;20051;-77
2021/05/19 06:08:37;;;;;;;6.05;1.30;;;;;;;;;;5045908;28;20041;-77
2021/05/19 06:11:05;;;;;;;6.72;1.00;;;;;;;;;;5079689;28;20503;-77
2021/05/19 06:13:31;;;;;;;5.38;1.10;;;;;;;;;;5044091;28;20502;-77
2021/05/19 06:15:57;;;;;;;3.80;0.80;;;;;;;;;;5053157;28;20076;-77
2021/05/19 06:18:22;;;;;;;4.93;1.20;;;;;;;;;;5052723;28;20517;-77
2021/05/19 06:20:47;;;;;;;4.03;0.88;;;;;;;;;;5050240;28;20040;-76
2021/05/19 06:23:13;;;;;;;6.03;0.98;;;;;;;;;;5034473;28;20036;-77
2021/05/19 06:25:38;;;;;;;7.90;2.45;;;;;;;;;;5052729;28;20045;-76
2021/05/19 06:28:04;;;;;;;6.93;1.63;;;;;;;;;;5069759;28;20449;-77
2021/05/19 06:30:29;;;;;;;7.15;1.50;;;;;;;;;;5035663;28;20426;-77
2021/05/19 06:32:55;;;;;;;6.88;1.15;;;;;;;;;;5069047;28;20495;-77
2021/05/19 06:35:20;;;;;;;4.95;1.33;;;;;;;;;;5048432;28;20048;-77
2021/05/19 06:37:45;;;;;;;5.53;1.13;;;;;;;;;;5033038;28;20514;-78
2021/05/19 06:40:11;;;;;;;8.30;1.48;;;;;;;;;;5051140;28;20041;-78
2021/05/19 06:42:37;;;;;;;8.73;1.30;;;;;;;;;;5052585;28;20486;-78
2021/05/19 06:45:03;;;;;;;4.35;1.15;;;;;;;;;;5036058;28;20548;-78
2021/05/19 06:47:28;;;;;;;6.10;1.15;;;;;;;;;;5069084;28;20025;-78
2021/05/19 06:49:53;;;;;;;3.17;0.82;;;;;;;;;;5052228;28;20086;-78
2021/05/19 06:52:19;;;;;;;4.55;1.00;;;;;;;;;;5035792;28;20094;-77
2021/05/19 06:54:45;;;;;;;6.10;0.80;;;;;;;;;;5036487;28;20522;-77
2021/05/19 06:57:10;;;;;;;6.75;1.35;;;;;;;;;;5069205;28;20444;-77
2021/05/19 06:59:36;;;;;;;7.25;1.25;;;;;;;;;;5037678;28;20529;-77
2021/05/19 07:02:01;;;;;;;4.40;0.88;;;;;;;;;;5052588;28;20029;-77
2021/05/19 07:04:27;;;;;;;4.43;0.80;;;;;;;;;;5066432;28;20041;-77
2021/05/19 07:06:52;;;;;;;4.07;1.13;;;;;;;;;;5033537;28;20534;-77
2021/05/19 07:09:19;;;;;;;4.80;0.93;;;;;;;;;;5051780;28;20041;-78
2021/05/19 07:11:44;;;;;;;4.82;0.80;;;;;;;;;;5035700;28;20044;-78
2021/05/19 07:14:15;;;;;;;3.65;1.10;;;;;;;;;;5035081;28;20422;-77
2021/05/19 07:16:49;;;;;;;2.13;0.57;;;;;;;;;;5036412;28;20041;-77
2021/05/19 07:19:14;;;;;;;4.22;0.80;;;;;;;;;;5051761;28;20269;-77
2021/05/19 07:21:40;;;;;;;5.72;0.75;;;;;;;;;;5019221;28;20033;-77
2021/05/19 07:24:05;;;;;;;2.22;0.68;;;;;;;;;;5051385;28;20044;-79
2021/05/19 07:26:31;;;;;;;3.35;0.85;;;;;;;;;;5085389;28;20112;-78
2021/05/19 07:28:56;;;;;;;3.20;0.98;;;;;;;;;;5085304;28;20037;-79
2021/05/19 07:31:22;;;;;;;4.50;0.90;;;;;;;;;;5068648;28;20064;-79
2021/05/19 07:33:48;;;;;;;4.43;0.98;;;;;;;;;;5051476;28;20546;-78
2021/05/19 07:36:13;;;;;;;10.35;4.75;;;;;;;;;;5068364;28;20052;-78
2021/05/19 07:38:38;;;;;;;10.55;5.30;;;;;;;;;;5048797;28;20040;-78
2021/05/19 07:41:04;;;;;;;6.75;2.88;;;;;;;;;;5065458;28;20040;-76
2021/05/19 07:43:29;;;;;;;7.05;3.50;;;;;;;;;;5049696;28;20491;-76
2021/05/19 07:45:55;;;;;;;7.85;3.75;;;;;;;;;;5067951;28;20037;-77
2021/05/19 07:48:20;;;;;;;9.45;5.13;;;;;;;;;;5050538;28;20037;-76
2021/05/19 07:50:46;;;;;;;8.93;4.47;;;;;;;;;;5033026;28;20037;-75
2021/05/19 07:53:11;;;;;;;7.18;3.55;;;;;;;;;;5032244;28;20037;-75
2021/05/19 07:55:50;;;;;;;9.90;4.15;;;;;;;;;;5050371;28;20376;-75
2021/05/19 07:58:22;;;;;;;8.18;4.38;;;;;;;;;;5047086;28;20048;-75
2021/05/19 08:03:22;;;;;;;6.78;2.45;;;;;;;;;;5050168;28;20059;-75
2021/05/19 08:05:47;;;;;;;6.32;2.88;;;;;;;;;;5050796;28;20728;-75
2021/05/19 08:08:12;;;;;;;7.15;2.67;;;;;;;;;;5050396;28;20491;-75
2021/05/19 08:10:39;;;;;;;5.13;1.80;;;;;;;;;;5050145;28;20032;-75
2021/05/19 08:13:04;;;;;;;5.07;1.83;;;;;;;;;;5033066;28;20044;-75
2021/05/19 08:15:30;;;;;;;5.05;1.80;;;;;;;;;;5050583;28;20041;-75
2021/05/19 08:17:55;;;;;;;4.60;1.35;;;;;;;;;;5047474;28;20044;-75
2021/05/19 08:20:21;;;;;;;4.15;1.38;;;;;;;;;;5067072;28;20483;-75
2021/05/19 08:22:47;;;;;;;4.72;1.42;;;;;;;;;;5050270;28;20037;-74
2021/05/19 08:25:13;;;;;;;3.67;1.10;;;;;;;;;;5028551;28;20079;-74
2021/05/19 08:27:38;;;;;;;3.60;1.08;;;;;;;;;;5050018;28;20438;-74
2021/05/19 08:30:04;;;;;;;5.47;1.13;;;;;;;;;;5066549;28;20417;-75
2021/05/19 08:32:30;;;;;;;2.92;0.77;;;;;;;;;;5049293;28;20533;-75
2021/05/19 08:34:55;;;;;;;5.13;1.10;;;;;;;;;;5029805;28;20053;-75
2021/05/19 08:37:20;;;;;;;5.82;1.40;;;;;;;;;;5050253;28;20070;-75
2021/05/19 08:39:48;;;;;;;3.42;1.02;;;;;;;;;;5066777;28;20094;-75
2021/05/19 08:42:13;;;;;;;5.90;0.93;;;;;;;;;;5066431;28;20090;-75
2021/05/19 08:44:40;;;;;;;4.10;0.80;;;;;;;;;;5049890;28;20032;-75
2021/05/19 08:47:06;;;;;;;4.07;1.33;;;;;;;;;;5027526;28;20037;-75
2021/05/19 08:49:32;;;;;;;3.50;0.65;;;;;;;;;;5058665;28;20025;-75
2021/05/19 08:51:57;;;;;;;4.25;0.95;;;;;;;;;;5047163;28;20449;-75
2021/05/19 08:54:24;;;;;;;7.07;1.10;;;;;;;;;;5049712;28;20033;-75
2021/05/19 08:56:49;;;;;;;3.45;0.80;;;;;;;;;;5049753;28;20036;-75
2021/05/19 08:59:15;;;;;;;5.13;1.23;;;;;;;;;;5050503;28;20075;-75
2021/05/19 09:01:41;;;;;;;4.18;0.60;;;;;;;;;;5050222;28;20509;-76
2021/05/19 09:04:07;;;;;;;4.43;1.52;;;;;;;;;;5049888;28;20036;-75
2021/05/19 09:06:34;;;;;;;5.03;1.50;;;;;;;;;;5050042;28;20039;-76
2021/05/19 09:08:59;;;;;;;5.22;2.00;;;;;;;;;;5033581;28;20395;-76
2021/05/19 09:11:24;;;;;;;7.07;3.90;;;;;;;;;;5066727;28;20052;-76
2021/05/19 09:13:50;;;;;;;5.82;3.38;;;;;;;;;;5065869;28;20037;-76
2021/05/19 09:16:31;;;;;;;6.85;3.17;;;;;;;;;;5064659;28;20040;-76
2021/05/19 09:18:57;;;;;;;6.05;3.40;;;;;;;;;;5039544;28;20033;-76
2021/05/19 09:21:39;;;;;;;6.03;2.63;;;;;;;;;;5050110;28;20036;-76
2021/05/19 09:24:10;;;;;;;6.88;2.80;;;;;;;;;;5049806;28;20402;-76
2021/05/19 09:26:57;;;;;;;4.88;2.78;;;;;;;;;;5034314;28;20047;-76
2021/05/19 09:29:24;;;;;;;4.15;1.73;;;;;;;;;;5067011;28;20040;-76
2021/05/19 09:31:57;;;;;;;3.13;1.20;;;;;;;;;;5049692;28;20055;-76
2021/05/19 09:34:24;;;;;;;3.30;1.45;;;;;;;;;;5049665;28;20106;-76
2021/05/19 09:36:49;;;;;;;1.73;0.70;;;;;;;;;;5033496;28;20041;-76
2021/05/19 09:39:15;;;;;;;3.97;0.95;;;;;;;;;;5049957;28;20041;-76
2021/05/19 09:41:40;;;;;;;1.33;0.60;;;;;;;;;;5050177;28;20041;-76
2021/05/19 09:44:06;;;;;;;2.42;0.60;;;;;;;;;;5049351;28;20418;-76
2021/05/19 09:49:17;;;;;;;1.20;0.32;;;;;;;;;;5053137;28;20033;-76
2021/05/19 09:51:52;;;;;;;1.42;0.28;;;;;;;;;;5037452;28;20040;-76
2021/05/19 09:54:31;;;;;;;0.82;0.20;;;;;;;;;;5037249;28;20043;-76
2021/05/19 09:57:09;;;;;;;1.80;0.65;;;;;;;;;;5053895;28;20037;-76
2021/05/19 09:59:35;;;;;;;0.90;0.20;;;;;;;;;;5069465;28;20037;-76
2021/05/19 10:02:01;;;;;;;1.77;0.30;;;;;;;;;;5054359;28;20555;-76
2021/05/19 10:04:42;;;;;;;2.33;0.30;;;;;;;;;;5070072;28;20503;-76
2021/05/19 10:07:12;;;;;;;2.40;0.17;;;;;;;;;;5067815;28;20040;-76
2021/05/19 10:09:37;;;;;;;0.85;0.20;;;;;;;;;;5053051;28;20036;-76
2021/05/19 10:12:03;;;;;;;2.33;0.30;;;;;;;;;;5081973;28;20387;-76
2021/05/19 10:14:29;;;;;;;2.05;0.30;;;;;;;;;;5058211;28;20033;-76
2021/05/19 10:17:05;;;;;;;1.10;0.30;;;;;;;;;;5053024;28;20941;-76
2021/05/19 10:19:35;;;;;;;2.20;0.20;;;;;;;;;;5068910;28;20387;-76
2021/05/19 10:22:00;;;;;;;3.15;0.30;;;;;;;;;;5069405;28;20040;-76
2021/05/19 10:24:45;;;;;;;1.63;0.40;;;;;;;;;;5036505;28;20490;-76
2021/05/19 10:27:10;;;;;;;2.78;0.73;;;;;;;;;;5052004;28;20079;-76
2021/05/19 10:29:51;;;;;;;1.92;0.30;;;;;;;;;;5068900;28;20040;-76
2021/05/19 10:32:23;;;;;;;3.03;0.40;;;;;;;;;;5069620;28;20037;-76
2021/05/19 10:35:00;;;;;;;3.33;0.45;;;;;;;;;;5036956;28;20033;-76
2021/05/19 10:37:29;;;;;;;4.57;0.57;;;;;;;;;;5052225;28;20037;-76
2021/05/19 10:40:13;;;;;;;6.70;0.75;;;;;;;;;;5053610;28;20053;-76
2021/05/19 10:42:41;;;;;;;5.18;1.15;;;;;;;;;;5050168;28;20032;-76
2021/05/19 10:45:12;;;;;;;3.17;0.80;;;;;;;;;;5052032;28;20044;-76
2021/05/19 10:47:38;;;;;;;3.03;0.50;;;;;;;;;;5068208;28;20056;-76
2021/05/19 10:50:25;;;;;;;3.63;0.70;;;;;;;;;;5052637;28;20521;-76
2021/05/19 11:01:08;;;;;;;2.30;0.40;;;;;;;;;;5044025;28;20029;-76
2021/05/19 11:03:34;;;;;;;3.72;0.70;;;;;;;;;;5020245;28;20410;-76
2021/05/19 11:06:00;;;;;;;4.10;0.60;;;;;;;;;;5051414;28;20036;-75
2021/05/19 11:08:30;;;;;;;5.20;1.20;;;;;;;;;;5051714;28;20040;-76
2021/05/19 11:11:33;;;;;;;3.40;0.93;;;;;;;;;;5063722;28;20499;-76
2021/05/19 11:14:18;;;;;;;4.45;0.90;;;;;;;;;;5010161;28;20045;-76
2021/05/19 11:16:52;;;;;;;5.40;0.43;;;;;;;;;;5031155;28;20056;-76
2021/05/19 11:19:28;;;;;;;1.88;0.68;;;;;;;;;;5065571;28;20036;-76
2021/05/19 11:22:01;;;;;;;3.05;0.40;;;;;;;;;;5049150;28;20048;-76
2021/05/19 11:24:27;;;;;;;2.10;0.40;;;;;;;;;;5051194;28;20041;-76
2021/05/19 11:26:53;;;;;;;2.58;0.45;;;;;;;;;;5050438;28;20032;-76
2021/05/19 11:29:19;;;;;;;2.00;0.55;;;;;;;;;;5034877;28;20044;-75
2021/05/19 11:31:46;;;;;;;2.05;0.50;;;;;;;;;;5033899;28;20041;-75
2021/05/19 11:34:16;;;;;;;3.83;0.85;;;;;;;;;;5050749;28;20033;-75
2021/05/19 11:36:43;;;;;;;1.33;0.45;;;;;;;;;;5051172;28;20032;-76
2021/05/19 11:39:27;;;;;;;2.20;0.50;;;;;;;;;;5051249;28;20120;-77
2021/05/19 11:41:54;;;;;;;5.38;0.50;;;;;;;;;;5051883;28;20025;-76
2021/05/19 11:44:30;;;;;;;3.90;0.50;;;;;;;;;;5051139;28;20483;-77
2021/05/19 11:46:55;;;;;;;2.75;0.50;;;;;;;;;;5073312;28;20030;-76
2021/05/19 11:49:20;;;;;;;3.63;0.47;;;;;;;;;;5051549;28;20407;-77
2021/05/19 11:51:46;;;;;;;2.53;0.93;;;;;;;;;;5051231;28;20043;-76
2021/05/19 11:54:11;;;;;;;2.45;0.57;;;;;;;;;;5049301;28;20037;-76
2021/05/19 11:56:50;;;;;;;2.33;0.40;;;;;;;;;;5050285;28;20037;-76
2021/05/19 11:59:25;;;;;;;2.60;0.45;;;;;;;;;;5059325;28;20037;-76
2021/05/19 12:01:58;;;;;;;1.27;0.40;;;;;;;;;;5036932;28;20048;-76
2021/05/19 12:04:24;;;;;;;5.88;0.80;;;;;;;;;;5050753;28;20106;-74
2021/05/19 12:06:50;;;;;;;4.90;0.82;;;;;;;;;;5050281;28;20055;-75
2021/05/19 12:09:17;;;;;;;4.10;0.68;;;;;;;;;;5044587;28;20041;-75
2021/05/19 12:11:42;;;;;;;4.85;0.80;;;;;;;;;;5050607;28;20037;-74
2021/05/19 12:14:10;;;;;;;3.13;0.70;;;;;;;;;;5033649;28;20086;-74
2021/05/19 12:16:43;;;;;;;5.07;0.80;;;;;;;;;;5065771;28;20530;-74
2021/05/19 12:19:10;;;;;;;2.47;1.15;;;;;;;;;;5049400;28;20056;-74
2021/05/19 12:21:37;;;;;;;3.25;0.55;;;;;;;;;;5034666;28;20037;-74
2021/05/19 12:24:04;;;;;;;1.98;0.50;;;;;;;;;;5033937;28;20052;-75
2021/05/19 12:26:29;;;;;;;3.17;0.80;;;;;;;;;;5032756;28;20029;-75
2021/05/19 12:28:55;;;;;;;1.98;0.90;;;;;;;;;;5047595;28;20063;-74
2021/05/19 12:31:28;;;;;;;4.00;0.70;;;;;;;;;;5047753;28;20032;-75
2021/05/19 12:33:53;;;;;;;2.58;0.60;;;;;;;;;;5050446;28;20032;-74
2021/05/19 12:36:27;;;;;;;2.70;0.40;;;;;;;;;;5050371;28;20487;-75
2021/05/19 12:38:54;;;;;;;1.90;0.35;;;;;;;;;;5066320;28;20041;-74
2021/05/19 12:41:45;;;;;;;1.52;0.52;;;;;;;;;;5028694;28;20104;-74
2021/05/19 12:44:15;;;;;;;1.50;0.60;;;;;;;;;;5073989;28;20044;-74
2021/05/19 12:46:56;;;;;;;1.52;0.60;;;;;;;;;;5030629;28;20064;-75
2021/05/19 12:49:21;;;;;;;1.17;0.47;;;;;;;;;;5050534;28;20036;-74
2021/05/19 12:51:57;;;;;;;2.20;0.60;;;;;;;;;;5049796;28;20048;-74
2021/05/19 12:54:28;;;;;;;3.80;0.57;;;;;;;;;;5049429;28;20038;-75
2021/05/19 12:56:59;;;;;;;1.73;0.37;;;;;;;;;;5034466;28;20483;-75
2021/05/19 12:59:24;;;;;;;1.70;0.63;;;;;;;;;;5052042;28;20324;-76
2021/05/19 13:01:50;;;;;;;7.05;1.20;;;;;;;;;;5053955;28;20056;-76
2021/05/19 13:04:16;;;;;;;3.92;0.65;;;;;;;;;;5028373;28;20029;-76
2021/05/19 13:06:42;;;;;;;3.85;0.90;;;;;;;;;;5067003;28;20461;-75
2021/05/19 13:09:17;;;;;;;3.20;0.60;;;;;;;;;;5033500;28;20087;-76
2021/05/19 13:11:51;;;;;;;4.22;1.10;;;;;;;;;;5050532;28;20061;-76
2021/05/19 13:14:57;;;;;;;4.28;0.57;;;;;;;;;;5050228;28;20040;-76
2021/05/19 13:17:30;;;;;;;2.38;0.77;;;;;;;;;;5012640;28;20057;-76
2021/05/19 13:19:57;;;;;;;2.28;0.52;;;;;;;;;;4997533;28;20242;-76
2021/05/19 13:22:25;;;;;;;2.60;0.47;;;;;;;;;;5003567;28;20053;-75
2021/05/19 13:24:50;;;;;;;5.15;0.40;;;;;;;;;;5035726;28;20419;-76
2021/05/19 13:27:16;;;;;;;2.80;0.47;;;;;;;;;;5063521;28;20042;-76
2021/05/19 13:29:42;;;;;;;1.77;0.40;;;;;;;;;;5030213;28;20408;-76
2021/05/19 13:32:18;;;;;;;2.88;1.08;;;;;;;;;;5046480;28;20519;-76
2021/05/19 13:37:11;;;;;;;2.33;0.50;;;;;;;;;;5046207;28;20116;-76
2021/05/19 13:39:37;;;;;;;3.40;0.60;;;;;;;;;;5030191;28;20415;-76
2021/05/19 13:42:03;;;;;;;5.20;1.48;;;;;;;;;;5054587;28;20041;-76
2021/05/19 13:44:29;;;;;;;3.63;0.60;;;;;;;;;;5016437;28;20033;-76
2021/05/19 13:46:56;;;;;;;5.75;0.57;;;;;;;;;;5032133;28;20292;-76
2021/05/19 13:51:54;;;;;;;2.67;0.50;;;;;;;;;;5067167;28;20032;-77
2021/05/19 13:54:19;;;;;;;2.75;0.60;;;;;;;;;;5053566;28;20064;-76
2021/05/19 13:56:45;;;;;;;2.15;0.40;;;;;;;;;;5064863;28;20131;-76
2021/05/19 13:59:10;;;;;;;2.45;0.65;;;;;;;;;;5051432;28;20033;-76
2021/05/19 14:01:36;;;;;;;4.00;0.50;;;;;;;;;;5066683;28;20075;-75
2021/05/19 14:04:03;;;;;;;5.18;0.70;;;;;;;;;;5045696;28;20042;-76
2021/05/19 14:06:28;;;;;;;8.05;1.10;;;;;;;;;;5030432;28;20062;-76
2021/05/19 14:08:54;;;;;;;10.40;1.25;;;;;;;;;;5048990;28;20044;-75
2021/05/19 14:11:21;;;;;;;3.03;0.73;;;;;;;;;;5047555;28;20041;-77
2021/05/19 14:29:40;;;;;;;1.85;0.40;;;;;;;;;;5049217;28;20033;-76
2021/05/19 14:32:07;;;;;;;2.33;0.55;;;;;;;;;;5049224;28;20072;-76
2021/05/19 14:34:32;;;;;;;4.20;0.65;;;;;;;;;;5068298;28;20350;-76
2021/05/19 15:00:54;;;;;;;1.02;0.60;;;;;;;;;;5054321;28;20029;-76
2021/05/19 15:03:19;;;;;;;1.90;0.40;;;;;;;;;;5051966;28;20135;-76
2021/05/19 15:05:45;;;;;;;1.50;0.40;;;;;;;;;;5053350;28;20036;-76
2021/05/19 15:08:10;;;;;;;3.13;0.40;;;;;;;;;;5052016;28;20052;-76
2021/05/19 15:10:36;;;;;;;1.40;0.30;;;;;;;;;;5052529;28;20110;-75
2021/05/19 15:13:02;;;;;;;2.00;0.45;;;;;;;;;;5051899;28;20384;-76
2021/05/19 15:15:28;;;;;;;1.83;0.40;;;;;;;;;;5052864;28;20414;-75
2021/05/19 15:17:53;;;;;;;1.27;0.40;;;;;;;;;;5051560;28;20044;-75
2021/05/19 15:20:18;;;;;;;2.33;0.30;;;;;;;;;;5068147;28;20041;-75
2021/05/19 15:22:44;;;;;;;0.90;0.30;;;;;;;;;;5052236;28;20056;-76
2021/05/19 15:25:10;;;;;;;1.63;0.60;;;;;;;;;;5053165;28;20045;-75
2021/05/19 15:27:35;;;;;;;1.38;0.45;;;;;;;;;;5068072;28;20045;-75
2021/05/19 15:30:01;;;;;;;1.05;0.30;;;;;;;;;;5051735;28;20044;-75
2021/05/19 15:32:26;;;;;;;1.08;0.30;;;;;;;;;;5051953;28;20038;-75
2021/05/19 15:34:52;;;;;;;0.73;0.30;;;;;;;;;;5051066;28;20036;-76
2021/05/19 15:37:17;;;;;;;1.63;0.57;;;;;;;;;;5051698;28;20144;-76
2021/05/19 15:39:45;;;;;;;1.67;0.40;;;;;;;;;;5051530;28;20037;-76
2021/05/19 15:42:10;;;;;;;2.13;0.38;;;;;;;;;;5051616;28;20582;-75